Time;durP1;ratioP1;P1;durP2;ratioP2;P2;SDS_P1;SDS_P2;PMS_P1;PMS_P2;Temp;Humidity;BMP_temperature;BMP_pressure;BME280_temperature;BME280_humidity;BME280_pressure;Samples;Min_cycle;Max_cycle;Signal;HPM_P1;HPM_P2
2021/05/18 00:00:28;;;;;;;2.23;2.03;;;;;;;12.69;100.00;94196.16;5093385;28;20992;-79
2021/05/18 00:02:55;;;;;;;2.50;1.97;;;;;;;12.79;100.00;94199.50;5094006;28;20512;-79
2021/05/18 00:05:23;;;;;;;1.83;1.73;;;;;;;12.95;100.00;94193.44;5093830;28;20441;-79
2021/05/18 00:07:55;;;;;;;2.27;2.07;;;;;;;12.98;99.69;94208.91;5093742;28;20440;-79
2021/05/18 00:13:08;;;;;;;1.80;1.70;;;;;;;13.13;98.69;94186.25;5093832;28;20432;-79
2021/05/18 00:15:35;;;;;;;1.80;1.70;;;;;;;13.06;98.13;94187.06;5093427;28;20435;-79
2021/05/18 00:18:02;;;;;;;1.63;1.53;;;;;;;13.07;98.89;94199.25;5041268;28;20441;-79
2021/05/18 00:20:29;;;;;;;1.70;1.60;;;;;;;13.25;97.86;94202.56;5093247;28;20487;-79
2021/05/18 00:22:55;;;;;;;1.70;1.60;;;;;;;13.29;97.13;94212.63;5057993;28;20438;-79
2021/05/18 00:25:23;;;;;;;6.63;1.77;;;;;;;13.47;96.63;94233.56;5093279;28;21160;-79
2021/05/18 00:27:49;;;;;;;1.60;1.50;;;;;;;13.52;96.63;94236.53;5092956;28;20988;-79
2021/05/18 00:30:16;;;;;;;4.90;2.90;;;;;;;13.61;96.39;94238.22;4991952;28;20448;-79
2021/05/18 00:32:42;;;;;;;1.80;1.70;;;;;;;13.61;97.13;94230.28;5093210;28;20799;-79
2021/05/18 00:35:11;;;;;;;1.67;1.57;;;;;;;13.59;96.39;94237.56;5093611;28;20457;-79
2021/05/18 00:37:38;;;;;;;2.50;1.70;;;;;;;13.67;96.12;94243.81;5093305;28;20925;-79
2021/05/18 00:40:08;;;;;;;2.10;2.00;;;;;;;13.72;96.16;94246.75;5093092;28;20489;-79
2021/05/18 00:42:46;;;;;;;1.90;1.80;;;;;;;13.84;95.51;94251.53;5014441;28;20460;-78
2021/05/18 00:45:14;;;;;;;1.73;1.63;;;;;;;13.91;94.96;94251.72;5030883;28;20885;-79
2021/05/18 00:47:41;;;;;;;2.60;1.60;;;;;;;13.81;93.58;94251.88;5031005;28;20872;-78
2021/05/18 00:50:09;;;;;;;3.77;1.83;;;;;;;13.90;94.36;94256.16;4998169;28;20452;-79
2021/05/18 00:52:36;;;;;;;3.03;1.70;;;;;;;13.97;94.51;94266.06;4981746;28;20449;-79
2021/05/18 00:55:07;;;;;;;2.60;1.80;;;;;;;14.01;95.21;94273.47;5030776;28;20449;-79
2021/05/18 01:00:20;;;;;;;1.80;1.70;;;;;;;14.06;94.83;94292.25;5030836;28;20524;-79
2021/05/18 01:02:48;;;;;;;2.00;1.90;;;;;;;13.98;95.52;94300.19;5030787;28;20450;-79
2021/05/18 01:05:18;;;;;;;2.90;1.80;;;;;;;14.01;96.44;94306.94;4997979;28;20844;-79
2021/05/18 01:07:46;;;;;;;4.13;2.33;;;;;;;14.07;96.94;94315.00;5078343;28;20447;-79
2021/05/18 01:10:14;;;;;;;4.33;3.00;;;;;;;14.08;97.70;94289.44;5093223;28;20450;-79
2021/05/18 01:12:41;;;;;;;4.87;2.47;;;;;;;14.08;98.13;94274.44;5093454;28;20779;-78
2021/05/18 01:15:10;;;;;;;2.30;2.10;;;;;;;14.05;98.13;94226.47;5093396;28;20447;-80
2021/05/18 01:17:37;;;;;;;2.27;2.03;;;;;;;13.98;99.13;94228.94;5093599;28;20452;-79
2021/05/18 01:20:11;;;;;;;7.80;2.40;;;;;;;14.05;99.51;94240.47;5092709;28;20483;-79
2021/05/18 01:22:44;;;;;;;3.07;2.30;;;;;;;13.95;99.15;94229.28;5092965;28;20444;-79
2021/05/18 01:25:13;;;;;;;2.37;2.17;;;;;;;13.95;99.54;94250.38;5092792;28;20454;-79
2021/05/18 01:27:39;;;;;;;12.67;3.40;;;;;;;13.92;100.00;94248.91;5092989;28;20508;-79
2021/05/18 01:30:07;;;;;;;2.47;2.20;;;;;;;13.93;100.00;94255.84;5093041;28;20444;-79
2021/05/18 01:32:34;;;;;;;2.90;2.33;;;;;;;13.73;100.00;94238.69;5096590;28;20465;-79
2021/05/18 01:35:01;;;;;;;2.50;2.30;;;;;;;13.82;100.00;94255.31;5096352;28;20499;-79
2021/05/18 01:37:27;;;;;;;5.33;2.70;;;;;;;13.80;100.00;94254.66;5096708;28;20442;-79
2021/05/18 01:40:07;;;;;;;3.10;2.80;;;;;;;13.53;100.00;94240.81;5096711;28;20574;-80
2021/05/18 01:42:46;;;;;;;3.67;2.30;;;;;;;13.57;100.00;94236.84;5096647;28;20444;-79
2021/05/18 01:45:16;;;;;;;4.60;2.70;;;;;;;13.00;100.00;94228.84;5096156;28;20451;-79
2021/05/18 01:47:48;;;;;;;2.50;2.30;;;;;;;12.97;100.00;94236.25;5096382;28;20440;-79
2021/05/18 01:50:15;;;;;;;3.53;3.20;;;;;;;13.02;100.00;94236.59;5096541;28;20762;-80
2021/05/18 01:52:42;;;;;;;3.40;2.60;;;;;;;12.96;100.00;94251.22;5096687;28;20460;-79
2021/05/18 01:55:12;;;;;;;4.23;2.60;;;;;;;13.07;100.00;94250.13;5095984;28;20939;-80
2021/05/18 01:57:39;;;;;;;5.10;2.87;;;;;;;13.18;100.00;94260.38;5096291;28;20469;-79
2021/05/18 02:00:09;;;;;;;2.60;2.40;;;;;;;13.26;100.00;94264.81;5095836;28;20573;-79
2021/05/18 02:02:35;;;;;;;2.70;2.30;;;;;;;13.33;100.00;94276.38;5060547;28;20453;-79
2021/05/18 02:05:06;;;;;;;2.90;2.60;;;;;;;13.34;100.00;94267.50;5095953;28;20486;-79
2021/05/18 02:07:35;;;;;;;3.40;2.27;;;;;;;13.38;100.00;94260.91;5095966;28;20458;-80
2021/05/18 02:10:04;;;;;;;2.87;2.60;;;;;;;13.42;100.00;94283.31;5095482;28;20448;-79
2021/05/18 02:12:31;;;;;;;2.93;2.73;;;;;;;13.45;100.00;94288.25;5096093;28;20424;-79
2021/05/18 02:15:02;;;;;;;3.70;3.40;;;;;;;13.48;100.00;94293.19;5060367;28;20435;-79
2021/05/18 02:17:31;;;;;;;2.90;2.60;;;;;;;13.48;100.00;94295.00;5095880;28;20455;-79
2021/05/18 02:20:12;;;;;;;5.00;2.63;;;;;;;13.52;100.00;94301.59;5095651;28;20996;-79
2021/05/18 02:25:27;;;;;;;2.70;2.50;;;;;;;13.49;98.92;94300.13;5095588;28;20422;-80
2021/05/18 02:27:57;;;;;;;5.10;3.93;;;;;;;13.49;98.69;94320.38;5095716;28;20441;-79
2021/05/18 02:30:25;;;;;;;3.00;2.80;;;;;;;13.48;98.63;94322.19;5076647;28;20453;-78
2021/05/18 02:32:52;;;;;;;5.00;3.20;;;;;;;13.47;98.60;94333.72;5095320;28;20489;-79
2021/05/18 02:35:18;;;;;;;4.50;2.80;;;;;;;13.44;98.97;94341.13;5042795;28;20505;-79
2021/05/18 02:37:46;;;;;;;5.33;2.50;;;;;;;13.45;99.38;94335.69;5095498;28;20439;-79
2021/05/18 02:40:18;;;;;;;3.20;2.90;;;;;;;13.49;99.67;94342.28;5095448;28;20484;-80
2021/05/18 02:42:45;;;;;;;3.50;3.20;;;;;;;13.52;99.94;94347.25;5094870;28;20475;-79
2021/05/18 02:45:19;;;;;;;3.97;3.67;;;;;;;13.55;99.98;94348.72;5094802;28;20439;-79
2021/05/18 02:50:29;;;;;;;3.97;2.83;;;;;;;13.56;100.00;94343.28;5094986;28;20513;-79
2021/05/18 02:52:55;;;;;;;4.33;2.90;;;;;;;13.54;100.00;94337.34;5094740;28;20965;-80
2021/05/18 02:55:27;;;;;;;8.30;3.67;;;;;;;13.56;99.78;94348.56;5094955;28;20534;-79
2021/05/18 02:57:53;;;;;;;4.33;3.50;;;;;;;13.51;99.18;94355.31;5095022;28;20446;-79
2021/05/18 03:00:23;;;;;;;3.73;3.50;;;;;;;13.44;99.06;94344.59;5094409;28;20825;-79
2021/05/18 03:02:51;;;;;;;3.60;3.40;;;;;;;13.41;99.07;94342.28;5095061;28;20789;-79
2021/05/18 03:05:18;;;;;;;3.73;3.53;;;;;;;13.28;99.20;94348.00;5094929;28;20444;-78
2021/05/18 03:07:45;;;;;;;4.60;4.20;;;;;;;13.21;100.00;94348.78;5095205;28;20927;-79
2021/05/18 03:10:13;;;;;;;4.40;4.10;;;;;;;13.12;100.00;94340.00;5094385;28;20922;-78
2021/05/18 03:12:39;;;;;;;5.00;4.60;;;;;;;13.19;100.00;94345.50;5043210;28;20454;-80
2021/05/18 03:15:07;;;;;;;5.03;4.63;;;;;;;13.25;100.00;94343.03;5009873;28;20441;-80
2021/05/18 03:17:35;;;;;;;5.80;5.30;;;;;;;13.25;100.00;94342.22;5095328;28;20450;-79
2021/05/18 03:20:03;;;;;;;5.97;5.37;;;;;;;13.28;100.00;94341.91;5095024;28;20489;-78
2021/05/18 03:22:29;;;;;;;8.30;6.90;;;;;;;13.29;100.00;94333.00;5095818;28;20962;-77
2021/05/18 03:24:56;;;;;;;7.03;6.47;;;;;;;13.25;100.00;94329.88;5095738;28;20507;-82
2021/05/18 03:27:24;;;;;;;6.77;6.00;;;;;;;13.36;100.00;94330.56;5099700;28;20439;-81
2021/05/18 03:29:51;;;;;;;5.90;5.37;;;;;;;13.38;99.79;94329.44;5095630;28;20819;-79
2021/05/18 03:35:07;;;;;;;6.63;5.97;;;;;;;13.37;97.63;94330.41;5094384;28;20528;-79
2021/05/18 03:37:43;;;;;;;6.30;5.80;;;;;;;13.42;97.92;94340.47;5094706;28;20440;-80
2021/05/18 03:40:12;;;;;;;5.63;4.90;;;;;;;13.34;97.17;94343.91;5059335;28;20514;-80
2021/05/18 03:42:41;;;;;;;6.13;5.60;;;;;;;13.33;97.10;94342.28;5097535;28;20526;-81
2021/05/18 03:45:14;;;;;;;6.10;5.60;;;;;;;13.33;97.20;94342.28;5097080;28;20490;-82
2021/05/18 03:53:26;;;;;;;6.50;5.90;;;;;;;13.31;95.53;94352.97;5093783;28;20778;-80
2021/05/18 03:58:52;;;;;;;6.20;5.60;;;;;;;13.28;95.40;94355.06;5050095;28;20880;-79
2021/05/18 04:04:10;;;;;;;6.60;6.00;;;;;;;13.23;94.95;94367.91;5094143;28;20462;-79
2021/05/18 04:12:26;;;;;;;6.40;5.90;;;;;;;13.27;94.30;94380.59;5093199;28;20445;-78
2021/05/18 04:17:40;;;;;;;7.30;4.67;;;;;;;13.29;94.00;94385.72;5094112;28;20504;-81
2021/05/18 04:20:18;;;;;;;5.83;5.37;;;;;;;13.29;94.28;94394.44;5041472;28;20560;-80
2021/05/18 04:22:57;;;;;;;5.80;5.03;;;;;;;13.26;93.13;94384.22;5094173;28;20454;-79
2021/05/18 04:25:50;;;;;;;4.30;4.00;;;;;;;13.24;91.96;94391.47;5094203;28;20444;-78
2021/05/18 04:39:24;;;;;;;4.30;3.87;;;;;;;13.26;90.96;94396.56;5031895;28;20442;-79
2021/05/18 04:42:29;;;;;;;3.70;3.50;;;;;;;13.15;91.25;94402.09;5032406;28;20452;-80
2021/05/18 04:53:13;;;;;;;4.10;3.70;;;;;;;13.15;91.49;94436.34;5010647;28;20445;-78
2021/05/18 05:01:15;;;;;;;4.83;3.67;;;;;;;13.52;91.57;94443.94;5012180;28;20505;-80
2021/05/18 05:04:03;;;;;;;6.40;3.27;;;;;;;13.50;90.45;94448.56;4965815;28;20526;-79
2021/05/18 05:06:42;;;;;;;3.40;2.70;;;;;;;13.55;90.70;94449.72;5014935;28;20483;-78
2021/05/18 05:09:18;;;;;;;3.50;3.27;;;;;;;13.52;88.82;94452.69;5071504;28;20861;-78
2021/05/18 05:14:30;;;;;;;3.00;2.73;;;;;;;13.46;90.31;94458.59;5083790;28;20504;-83
2021/05/18 05:16:56;;;;;;;6.27;4.43;;;;;;;13.56;89.90;94464.56;5081859;28;20459;-79
2021/05/18 05:19:26;;;;;;;2.90;2.70;;;;;;;13.46;88.39;94471.78;5076913;28;20487;-79
2021/05/18 05:21:53;;;;;;;2.70;2.50;;;;;;;13.37;88.01;94464.00;5076757;28;20540;-79
2021/05/18 05:24:19;;;;;;;3.77;3.13;;;;;;;13.42;89.62;94467.81;5076791;28;20439;-79
2021/05/18 05:26:47;;;;;;;2.70;2.50;;;;;;;13.40;88.63;94479.50;5076607;28;20447;-78
2021/05/18 05:29:14;;;;;;;2.70;2.50;;;;;;;13.49;89.01;94478.53;5077048;28;20793;-79
2021/05/18 05:31:40;;;;;;;6.83;3.73;;;;;;;13.50;89.17;94473.09;5076634;28;20435;-79
2021/05/18 05:34:07;;;;;;;4.00;3.70;;;;;;;13.61;87.39;94472.84;5076533;28;20444;-78
2021/05/18 05:36:33;;;;;;;17.73;3.80;;;;;;;13.73;88.04;94475.19;5075500;28;20919;-80
2021/05/18 05:39:03;;;;;;;3.67;3.37;;;;;;;13.79;87.88;94480.63;5075984;28;20427;-79
2021/05/18 05:41:30;;;;;;;2.80;2.60;;;;;;;14.00;85.53;94488.13;5075761;28;20536;-79
2021/05/18 05:43:58;;;;;;;4.20;2.93;;;;;;;14.12;84.04;94491.28;5075642;28;20493;-79
2021/05/18 05:46:24;;;;;;;2.50;2.40;;;;;;;14.55;82.49;94487.59;5075604;28;20953;-79
2021/05/18 05:48:53;;;;;;;5.43;2.67;;;;;;;15.17;80.90;94490.53;5076208;28;20797;-79
2021/05/18 05:51:21;;;;;;;2.60;2.40;;;;;;;15.84;76.27;94491.03;5075763;28;20451;-81
2021/05/18 05:53:48;;;;;;;2.00;1.90;;;;;;;16.27;74.34;94494.97;5075887;28;20420;-80
2021/05/18 05:56:14;;;;;;;3.80;2.13;;;;;;;16.47;73.39;94486.56;5075842;28;20527;-78
2021/05/18 05:58:40;;;;;;;2.43;2.17;;;;;;;16.71;71.49;94489.88;5075492;28;20429;-81
2021/05/18 06:01:08;;;;;;;4.80;2.00;;;;;;;17.11;72.16;94489.75;5075623;28;20962;-81
2021/05/18 06:03:34;;;;;;;2.60;2.40;;;;;;;17.79;70.06;94494.88;5075752;28;20472;-79
2021/05/18 06:06:01;;;;;;;2.37;2.10;;;;;;;18.28;67.25;94504.88;5075512;28;20922;-79
2021/05/18 06:08:27;;;;;;;2.27;2.07;;;;;;;18.43;64.54;94505.66;5075244;28;20449;-80
2021/05/18 06:10:59;;;;;;;2.60;2.40;;;;;;;18.68;64.25;94500.03;5075640;28;20429;-79
2021/05/18 06:43:37;;;;;;;1.70;1.60;;;;;;;18.29;60.94;94516.34;4916657;29;20485;-79
2021/05/18 06:46:19;;;;;;;2.13;1.90;;;;;;;17.93;61.44;94520.59;4916143;29;20444;-78
2021/05/18 06:48:48;;;;;;;13.90;2.50;;;;;;;17.63;63.75;94510.94;4916288;29;20817;-78
2021/05/18 06:51:15;;;;;;;2.43;2.23;;;;;;;17.63;63.30;94521.53;4870087;29;20441;-78
2021/05/18 06:53:41;;;;;;;3.10;2.90;;;;;;;17.55;62.86;94518.97;4940757;29;20447;-78
2021/05/18 06:56:08;;;;;;;2.27;2.07;;;;;;;17.31;62.79;94518.22;4954047;29;20454;-79
2021/05/18 07:00:06;;;;;;;3.30;2.37;;;;;;;17.05;62.83;94523.09;4954292;29;20446;-79
2021/05/18 07:01:32;;;;;;;2.43;2.27;;;;;;;16.72;65.07;94528.63;4954115;29;20504;-79
2021/05/18 07:04:07;;;;;;;3.10;2.70;;;;;;;16.54;65.84;94530.72;4937737;29;21022;-78
2021/05/18 07:06:42;;;;;;;6.17;2.30;;;;;;;16.42;66.26;94524.16;4953978;29;20202;-78
2021/05/18 07:09:08;;;;;;;4.90;2.23;;;;;;;16.35;66.73;94523.22;4965515;28;20796;-79
2021/05/18 07:11:34;;;;;;;5.40;2.80;;;;;;;16.28;67.04;94527.56;4993080;28;20456;-79
2021/05/18 07:14:01;;;;;;;1.70;1.60;;;;;;;16.53;66.79;94534.38;4992681;28;20444;-80
2021/05/18 07:16:28;;;;;;;1.90;1.80;;;;;;;16.83;65.34;94535.38;5015275;28;20433;-78
2021/05/18 07:18:54;;;;;;;2.00;1.80;;;;;;;17.42;62.87;94524.09;5073783;28;20940;-79
2021/05/18 07:21:21;;;;;;;9.53;1.80;;;;;;;17.76;59.32;94536.88;5074221;28;20464;-79
2021/05/18 07:23:49;;;;;;;3.40;1.50;;;;;;;17.99;60.08;94532.31;5074048;28;20451;-79
2021/05/18 07:26:16;;;;;;;3.77;1.67;;;;;;;18.22;56.93;94532.19;5074004;28;20869;-79
2021/05/18 07:28:42;;;;;;;1.47;1.37;;;;;;;18.37;55.86;94535.63;5073928;28;20456;-79
2021/05/18 07:31:09;;;;;;;1.80;1.70;;;;;;;18.10;55.13;94533.66;5073734;28;20437;-79
2021/05/18 07:33:35;;;;;;;5.30;1.80;;;;;;;18.27;56.31;94533.28;5074091;28;20440;-79
2021/05/18 07:36:07;;;;;;;2.40;1.90;;;;;;;18.44;55.97;94533.88;5073566;28;20515;-80
2021/05/18 07:38:34;;;;;;;1.90;1.70;;;;;;;18.35;56.51;94532.34;5073516;28;20433;-79
2021/05/18 07:41:02;;;;;;;2.07;1.53;;;;;;;18.22;56.88;94534.84;5073587;28;20481;-79
2021/05/18 07:43:28;;;;;;;3.13;1.60;;;;;;;18.15;57.83;94547.19;5038415;28;20534;-79
2021/05/18 07:45:56;;;;;;;1.40;1.30;;;;;;;17.66;55.52;94545.09;5073747;28;20442;-79
2021/05/18 07:48:27;;;;;;;7.33;1.77;;;;;;;17.25;58.72;94553.41;5073769;28;20448;-79
2021/05/18 07:51:03;;;;;;;2.60;1.97;;;;;;;17.42;59.92;94547.97;5073801;28;20959;-79
2021/05/18 07:59:16;;;;;;;3.50;1.60;;;;;;;18.00;57.32;94559.69;4991418;28;20852;-78
2021/05/18 08:07:11;;;;;;;2.77;2.00;;;;;;;17.15;58.72;94560.78;4992209;28;20810;-79
2021/05/18 08:09:43;;;;;;;2.30;2.00;;;;;;;17.00;59.66;94567.84;4991857;28;20543;-79
2021/05/18 08:12:10;;;;;;;2.27;1.70;;;;;;;16.84;60.09;94568.81;4991768;28;20503;-79
2021/05/18 08:14:39;;;;;;;3.83;1.50;;;;;;;16.78;60.43;94566.88;4991351;28;20451;-78
2021/05/18 08:17:19;;;;;;;1.53;1.30;;;;;;;16.88;61.56;94564.81;4991659;28;20453;-79
2021/05/18 08:20:24;;;;;;;2.30;1.70;;;;;;;16.89;62.81;94569.09;4991731;28;20440;-79
2021/05/18 10:27:09;;;;;;;5.30;3.00;;;;;;;17.80;53.51;94538.16;4996446;28;20875;-80
2021/05/18 10:34:53;;;;;;;3.00;1.20;;;;;;;17.97;54.85;94530.84;5008163;28;20429;-80
2021/05/18 10:37:23;;;;;;;1.30;1.10;;;;;;;17.91;51.81;94532.38;5008219;28;20459;-80
2021/05/18 10:40:23;;;;;;;1.70;1.60;;;;;;;17.88;51.88;94530.91;5007846;28;20479;-79
2021/05/18 10:43:32;;;;;;;1.30;1.20;;;;;;;17.80;54.78;94540.81;5007876;28;20939;-80
2021/05/18 10:46:11;;;;;;;1.47;1.37;;;;;;;17.86;54.02;94538.25;4968873;28;20551;-79
2021/05/18 10:49:01;;;;;;;2.30;1.10;;;;;;;17.91;53.38;94535.84;4968764;28;20442;-79
2021/05/18 10:51:43;;;;;;;1.43;1.23;;;;;;;17.91;53.68;94541.16;5008977;28;20499;-79
2021/05/18 10:54:27;;;;;;;8.33;1.40;;;;;;;17.83;53.42;94530.66;5067102;28;20475;-80
2021/05/18 10:57:21;;;;;;;2.63;1.70;;;;;;;17.85;53.81;94533.94;5078635;28;20438;-78
2021/05/18 10:59:54;;;;;;;4.63;1.50;;;;;;;18.07;52.58;94524.22;5128292;28;20423;-78
2021/05/18 11:02:24;;;;;;;3.53;1.50;;;;;;;18.30;51.55;94528.59;5126661;28;20438;-79
2021/05/18 11:04:53;;;;;;;2.03;1.30;;;;;;;18.34;51.57;94536.00;5114249;28;20432;-80
2021/05/18 11:07:22;;;;;;;1.50;1.40;;;;;;;18.37;51.25;94540.94;5114340;28;20542;-79
2021/05/18 11:09:49;;;;;;;2.60;1.00;;;;;;;18.44;50.90;94536.53;5114332;28;20444;-79
2021/05/18 11:12:17;;;;;;;1.70;1.60;;;;;;;18.39;52.11;94536.28;5063669;28;20544;-79
2021/05/18 11:14:54;;;;;;;2.67;1.63;;;;;;;18.60;53.34;94537.34;5114072;28;20812;-79
2021/05/18 11:17:25;;;;;;;2.37;1.20;;;;;;;18.75;51.25;94538.13;5080352;28;20453;-79
2021/05/18 11:20:05;;;;;;;1.30;1.20;;;;;;;18.85;51.00;94528.03;5114483;28;20436;-80
2021/05/18 11:25:41;;;;;;;3.10;1.27;;;;;;;18.85;49.64;94526.19;5053591;28;20437;-79
2021/05/18 11:28:10;;;;;;;2.40;1.20;;;;;;;19.07;50.27;94527.00;5053376;28;20901;-79
2021/05/18 11:30:37;;;;;;;1.50;1.40;;;;;;;19.19;48.82;94527.31;5053690;28;20500;-79
2021/05/18 11:33:05;;;;;;;1.33;1.23;;;;;;;19.31;49.65;94523.09;5053428;28;20467;-78
2021/05/18 11:35:32;;;;;;;1.40;1.30;;;;;;;19.49;49.92;94534.09;5053402;28;20433;-79
2021/05/18 11:38:01;;;;;;;1.30;1.00;;;;;;;19.44;47.36;94525.06;5053561;28;20433;-79
2021/05/18 11:40:27;;;;;;;5.27;1.50;;;;;;;19.40;45.57;94527.28;5053312;28;20835;-79
2021/05/18 11:42:54;;;;;;;2.27;1.57;;;;;;;19.38;46.71;94533.81;5053407;28;20440;-79
2021/05/18 11:45:21;;;;;;;3.40;1.53;;;;;;;19.35;46.96;94528.88;5053084;28;20449;-79
2021/05/18 11:47:50;;;;;;;2.47;1.53;;;;;;;19.43;46.37;94540.22;5053295;28;20832;-79
2021/05/18 11:50:23;;;;;;;1.30;1.20;;;;;;;19.55;47.19;94537.03;5052933;28;20526;-79
2021/05/18 11:52:51;;;;;;;6.30;1.60;;;;;;;19.48;48.55;94536.97;5052588;28;20498;-79
2021/05/18 11:55:23;;;;;;;2.30;1.20;;;;;;;19.33;45.87;94536.22;5053000;28;20452;-79
2021/05/18 11:57:52;;;;;;;1.40;1.30;;;;;;;19.29;46.74;94530.47;5052836;28;20461;-79
2021/05/18 12:00:26;;;;;;;3.73;1.30;;;;;;;19.10;47.23;94520.50;5052488;28;20456;-79
2021/05/18 12:03:14;;;;;;;2.30;1.20;;;;;;;18.94;46.70;94526.88;5117851;27;20443;-79
2021/05/18 12:05:52;;;;;;;3.67;1.50;;;;;;;18.87;46.73;94526.00;5052985;28;20537;-79
2021/05/18 12:08:39;;;;;;;4.53;1.50;;;;;;;18.88;46.95;94522.31;5052512;28;20462;-80
2021/05/18 12:11:13;;;;;;;1.60;1.50;;;;;;;18.79;45.75;94534.94;4993526;28;20529;-79
2021/05/18 12:13:40;;;;;;;1.30;1.10;;;;;;;18.81;46.19;94527.59;4993795;28;20442;-79
2021/05/18 12:16:09;;;;;;;4.30;1.43;;;;;;;18.76;45.61;94539.78;4992096;28;20505;-79
2021/05/18 12:18:36;;;;;;;2.70;1.40;;;;;;;18.73;45.45;94524.19;4993215;28;20457;-79
2021/05/18 12:21:06;;;;;;;1.33;1.23;;;;;;;18.69;46.25;94518.44;4993004;28;20450;-79
2021/05/18 12:23:33;;;;;;;1.40;1.30;;;;;;;18.72;46.08;94522.56;4993250;28;20496;-79
2021/05/18 12:26:10;;;;;;;5.30;1.37;;;;;;;18.90;46.24;94530.13;4992937;28;20489;-79
2021/05/18 12:28:37;;;;;;;11.90;1.60;;;;;;;19.06;44.68;94512.03;4992692;28;20453;-79
2021/05/18 12:31:04;;;;;;;5.10;1.57;;;;;;;19.27;44.27;94513.03;4992898;28;20451;-79
2021/05/18 12:33:35;;;;;;;2.50;1.17;;;;;;;19.37;42.12;94522.34;4992929;28;20442;-79
2021/05/18 12:36:06;;;;;;;2.27;1.30;;;;;;;19.38;42.79;94496.56;4992787;28;20454;-79
2021/05/18 12:38:33;;;;;;;1.70;1.50;;;;;;;19.52;41.98;94506.28;4992868;28;20434;-78
2021/05/18 12:41:04;;;;;;;1.67;1.20;;;;;;;19.70;41.46;94513.81;4992840;28;20443;-79
2021/05/18 12:43:41;;;;;;;2.47;1.40;;;;;;;19.90;42.27;94521.91;5063264;28;20979;-79
2021/05/18 12:46:09;;;;;;;1.43;1.13;;;;;;;19.96;39.03;94513.16;5071775;28;20440;-79
2021/05/18 12:48:36;;;;;;;1.23;1.13;;;;;;;19.98;40.08;94508.44;5119343;27;20514;-79
2021/05/18 12:51:17;;;;;;;4.93;1.13;;;;;;;19.92;38.90;94498.56;5134827;27;20474;-80
2021/05/18 12:53:43;;;;;;;2.70;1.20;;;;;;;19.92;39.08;94503.88;5134640;27;20444;-79
2021/05/18 12:56:12;;;;;;;1.03;0.93;;;;;;;20.01;38.98;94502.72;5099640;27;20774;-79
2021/05/18 12:58:39;;;;;;;1.10;1.00;;;;;;;20.15;40.34;94501.75;5135238;27;20834;-80
2021/05/18 13:01:08;;;;;;;1.20;1.03;;;;;;;20.31;38.50;94498.75;5135242;27;20881;-79
2021/05/18 13:03:34;;;;;;;3.13;1.20;;;;;;;20.44;38.41;94498.00;5134709;27;20793;-79
2021/05/18 13:06:01;;;;;;;1.10;1.00;;;;;;;20.54;38.59;94492.31;5135041;27;20483;-79
2021/05/18 13:08:32;;;;;;;2.33;1.10;;;;;;;20.56;38.17;94496.44;5134840;27;20949;-79
2021/05/18 13:11:09;;;;;;;1.85;1.00;;;;;;;20.41;38.75;94495.75;5134889;27;20973;-79
2021/05/18 13:13:50;;;;;;;1.23;1.13;;;;;;;20.37;38.58;94497.97;5135110;27;20456;-79
2021/05/18 13:16:18;;;;;;;3.00;1.10;;;;;;;20.37;39.18;94489.97;5134534;27;20480;-79
2021/05/18 13:18:58;;;;;;;3.23;1.00;;;;;;;20.26;40.46;94482.56;5135018;27;20453;-79
2021/05/18 13:21:26;;;;;;;3.23;1.27;;;;;;;20.25;41.65;94488.91;5134816;27;20538;-79
2021/05/18 13:24:23;;;;;;;1.30;1.20;;;;;;;20.31;40.45;94482.78;5134726;27;20446;-79
2021/05/18 13:26:49;;;;;;;2.80;1.17;;;;;;;20.25;41.07;94488.09;5134236;27;20434;-79
2021/05/18 13:29:18;;;;;;;1.50;1.40;;;;;;;20.25;40.84;94488.09;5134506;27;20448;-79
2021/05/18 13:31:45;;;;;;;2.30;1.27;;;;;;;20.28;40.29;94475.19;5134547;27;20505;-81
2021/05/18 13:34:11;;;;;;;2.50;1.60;;;;;;;20.28;40.06;94475.19;5134106;27;20956;-79
2021/05/18 13:36:38;;;;;;;3.53;1.20;;;;;;;20.18;40.57;94493.38;5134582;27;20426;-79
2021/05/18 13:39:07;;;;;;;1.20;1.10;;;;;;;20.10;40.52;94488.22;5134209;27;20453;-79
2021/05/18 13:41:34;;;;;;;4.30;1.67;;;;;;;20.14;41.04;94486.78;5134920;27;20498;-79
2021/05/18 13:44:00;;;;;;;7.80;3.30;;;;;;;20.13;41.43;94481.66;5134265;27;20448;-80
2021/05/18 13:46:26;;;;;;;3.40;1.27;;;;;;;20.12;39.40;94486.19;5115210;28;20458;-80
2021/05/18 13:48:53;;;;;;;1.30;1.20;;;;;;;20.12;41.06;94504.81;5134928;27;20434;-81
2021/05/18 13:51:19;;;;;;;1.20;1.07;;;;;;;20.09;39.56;94499.88;5133703;28;20501;-80
2021/05/18 13:53:46;;;;;;;3.20;1.33;;;;;;;20.08;40.70;94498.25;5097879;28;20446;-79
2021/05/18 13:56:13;;;;;;;2.13;1.50;;;;;;;20.04;41.11;94500.50;5134229;27;20444;-79
2021/05/18 13:58:39;;;;;;;1.50;1.27;;;;;;;20.06;40.89;94501.13;5134531;28;20530;-79
2021/05/18 14:01:06;;;;;;;3.30;1.40;;;;;;;20.02;42.39;94501.72;5134043;27;20901;-79
2021/05/18 14:03:33;;;;;;;2.70;1.43;;;;;;;19.90;40.03;94508.59;5134387;28;20446;-78
2021/05/18 14:05:59;;;;;;;2.53;1.40;;;;;;;19.74;41.41;94502.56;5097911;28;20491;-78
2021/05/18 14:08:27;;;;;;;1.73;1.63;;;;;;;19.76;41.19;94505.03;5134049;27;20438;-77
2021/05/18 14:10:57;;;;;;;23.53;2.00;;;;;;;19.79;41.15;94507.31;5134488;28;20531;-81
2021/05/18 14:13:26;;;;;;;1.20;1.10;;;;;;;19.86;41.61;94508.16;5133891;28;20938;-80
2021/05/18 14:15:53;;;;;;;3.90;1.20;;;;;;;19.96;41.76;94507.81;5115037;28;20441;-81
2021/05/18 14:18:19;;;;;;;1.30;1.10;;;;;;;19.96;39.98;94502.50;5134041;28;20460;-82
2021/05/18 14:20:46;;;;;;;2.17;1.20;;;;;;;19.99;41.03;94516.25;5134509;28;20426;-78
2021/05/18 14:23:12;;;;;;;1.60;1.23;;;;;;;20.03;41.95;94516.66;5134178;28;20579;-78
2021/05/18 14:25:39;;;;;;;1.30;1.20;;;;;;;20.07;41.59;94512.59;5134055;28;20921;-78
2021/05/18 14:28:06;;;;;;;3.30;1.00;;;;;;;20.00;39.86;94517.06;5133982;28;20438;-79
2021/05/18 14:30:34;;;;;;;2.43;1.00;;;;;;;19.96;40.76;94527.28;5134756;28;20430;-83
2021/05/18 14:33:00;;;;;;;1.40;1.30;;;;;;;19.97;41.61;94512.97;5134409;27;21001;-81
2021/05/18 14:35:28;;;;;;;4.37;1.60;;;;;;;19.97;41.07;94512.13;5134345;27;20797;-81
2021/05/18 14:37:58;;;;;;;2.70;1.00;;;;;;;19.91;40.20;94512.91;5134374;27;20477;-80
2021/05/18 14:40:40;;;;;;;2.10;1.57;;;;;;;19.92;41.54;94512.69;5137736;27;20445;-81
2021/05/18 14:43:23;;;;;;;2.30;1.57;;;;;;;19.94;40.64;94515.16;5138002;27;20440;-82
2021/05/18 14:45:53;;;;;;;2.10;1.43;;;;;;;19.90;40.85;94512.06;5137375;27;20475;-81
2021/05/18 14:53:39;;;;;;;1.40;1.23;;;;;;;19.88;41.93;94511.44;5137524;27;20452;-80
2021/05/18 14:54:11;;;;;;;4.40;1.50;;;;;;;19.94;41.78;94509.84;5137565;27;20486;-80
2021/05/18 14:56:37;;;;;;;4.30;1.30;;;;;;;19.98;40.77;94503.13;5118036;27;20476;-77
2021/05/18 14:59:04;;;;;;;1.20;1.00;;;;;;;20.01;40.30;94500.06;5137042;27;20831;-76
2021/05/18 15:01:31;;;;;;;1.27;1.17;;;;;;;20.07;40.53;94496.59;5117924;27;20436;-78
2021/05/18 15:03:58;;;;;;;4.80;1.23;;;;;;;20.06;39.67;94490.47;5137989;27;20434;-78
2021/05/18 15:06:24;;;;;;;1.40;1.30;;;;;;;19.99;39.25;94483.47;5137437;27;20437;-78
2021/05/18 15:08:50;;;;;;;2.63;1.27;;;;;;;19.99;39.81;94494.13;5118132;27;20929;-78
2021/05/18 15:11:17;;;;;;;1.90;1.80;;;;;;;19.99;39.58;94494.13;5137752;27;20452;-81
2021/05/18 15:13:43;;;;;;;2.30;1.20;;;;;;;19.97;38.62;94491.66;5137400;27;20440;-81
2021/05/18 15:16:09;;;;;;;1.67;1.20;;;;;;;20.01;39.52;94489.41;5117718;27;20834;-84
2021/05/18 15:18:37;;;;;;;1.43;1.20;;;;;;;20.01;38.38;94492.06;5135053;27;20445;-81
2021/05/18 15:21:04;;;;;;;1.30;1.17;;;;;;;20.04;40.21;94497.81;5133760;27;20457;-84
2021/05/18 15:23:30;;;;;;;2.13;1.33;;;;;;;20.09;38.77;94497.22;5137497;27;20434;-84
2021/05/18 15:25:57;;;;;;;2.20;2.00;;;;;;;20.09;39.74;94492.72;5137114;27;20417;-83
2021/05/18 15:28:24;;;;;;;1.10;1.00;;;;;;;20.14;38.76;94488.63;5136892;27;20435;-84
2021/05/18 15:30:50;;;;;;;3.07;1.80;;;;;;;20.18;39.38;94482.72;5136463;27;20954;-84
2021/05/18 15:33:16;;;;;;;5.30;1.43;;;;;;;20.25;39.04;94498.75;5100495;27;20477;-82
2021/05/18 15:35:44;;;;;;;1.40;1.30;;;;;;;20.31;39.02;94496.09;5136492;27;20483;-81
2021/05/18 15:38:10;;;;;;;5.10;1.50;;;;;;;20.32;39.81;94500.41;5136575;27;20808;-85
2021/05/18 15:40:36;;;;;;;1.50;1.37;;;;;;;20.31;39.41;94492.63;5136426;27;20518;-88
2021/05/18 15:43:03;;;;;;;2.60;1.43;;;;;;;20.22;38.10;94489.28;5136512;27;20445;-81